Pataskala, Ohio
Current Conditions -  °F | °C
As of 8:54 PM on Saturday 22 Nov 2014 (Local Time) from KVTA Reporting Station
Overcast Overcast  
Wind Chill: 43°   Ceiling: 10000
Heat Index: 46°   Visibility: 10mi
Dew Point: 31°   Wind: 6mph
Humidity: 56%   Direction: 210°SSW
Pressure: 30.08"   Gusts: NA
Location:  40°N, 82.67°W
Report Text: KVTA 230154Z AUTO 21005KT 10SM SCT085 OVC100 08/M01 A3008 RMK AO2 SLP191 T00781006
Loading
Personal Weather Stations






























Interactive Weather Map New forecast layout! Learn more

10-Day Weather Forecast

Advertisements
Track Severe Weather on mobile